sensor_id;sensor_type;location;lat;lon;timestamp;P1;durP1;ratioP1;P2;durP2;ratioP2
56039;SDS011;43937;41.366;2.072;2023-12-20T00:05:11;17.83;;;12.23;;
56039;SDS011;43937;41.366;2.072;2023-12-20T00:11:19;19.08;;;12.38;;
56039;SDS011;43937;41.366;2.072;2023-12-20T00:16:52;17.45;;;13.23;;
56039;SDS011;43937;41.366;2.072;2023-12-20T00:27:19;19.27;;;13.02;;
56039;SDS011;43937;41.366;2.072;2023-12-20T00:31:32;20.70;;;13.05;;
56039;SDS011;43937;41.366;2.072;2023-12-20T00:34:22;18.17;;;14.35;;
56039;SDS011;43937;41.366;2.072;2023-12-20T00:40:14;23.40;;;13.98;;
56039;SDS011;43937;41.366;2.072;2023-12-20T00:52:36;17.52;;;14.40;;
56039;SDS011;43937;41.366;2.072;2023-12-20T00:55:02;20.73;;;14.65;;
56039;SDS011;43937;41.366;2.072;2023-12-20T00:57:29;19.00;;;13.48;;
56039;SDS011;43937;41.366;2.072;2023-12-20T00:59:54;17.42;;;14.15;;
56039;SDS011;43937;41.366;2.072;2023-12-20T01:04:07;20.25;;;13.35;;
56039;SDS011;43937;41.366;2.072;2023-12-20T01:09:23;22.33;;;13.95;;
56039;SDS011;43937;41.366;2.072;2023-12-20T01:12:57;22.80;;;13.75;;
56039;SDS011;43937;41.366;2.072;2023-12-20T01:16:12;18.00;;;13.27;;
56039;SDS011;43937;41.366;2.072;2023-12-20T01:22:37;18.23;;;14.65;;
56039;SDS011;43937;41.366;2.072;2023-12-20T01:25:03;23.25;;;14.40;;
56039;SDS011;43937;41.366;2.072;2023-12-20T01:30:43;19.70;;;14.43;;
56039;SDS011;43937;41.366;2.072;2023-12-20T01:35:53;18.30;;;14.40;;
56039;SDS011;43937;41.366;2.072;2023-12-20T01:38:20;21.50;;;14.73;;
56039;SDS011;43937;41.366;2.072;2023-12-20T01:41:21;17.42;;;14.68;;
56039;SDS011;43937;41.366;2.072;2023-12-20T01:46:16;19.73;;;15.05;;
56039;SDS011;43937;41.366;2.072;2023-12-20T01:50:42;19.15;;;14.98;;
56039;SDS011;43937;41.366;2.072;2023-12-20T01:53:10;22.00;;;15.98;;
56039;SDS011;43937;41.366;2.072;2023-12-20T02:00:16;19.88;;;14.98;;
56039;SDS011;43937;41.366;2.072;2023-12-20T02:08:38;20.90;;;15.00;;
56039;SDS011;43937;41.366;2.072;2023-12-20T02:17:40;22.65;;;15.63;;
56039;SDS011;43937;41.366;2.072;2023-12-20T02:21:14;23.75;;;15.40;;
56039;SDS011;43937;41.366;2.072;2023-12-20T02:23:40;20.88;;;15.27;;
56039;SDS011;43937;41.366;2.072;2023-12-20T02:32:17;18.88;;;14.38;;
56039;SDS011;43937;41.366;2.072;2023-12-20T02:38:20;21.30;;;17.02;;
56039;SDS011;43937;41.366;2.072;2023-12-20T02:40:46;21.33;;;16.45;;
56039;SDS011;43937;41.366;2.072;2023-12-20T02:43:11;21.13;;;16.20;;
56039;SDS011;43937;41.366;2.072;2023-12-20T02:46:33;25.63;;;16.48;;
56039;SDS011;43937;41.366;2.072;2023-12-20T02:49:38;21.60;;;17.52;;
56039;SDS011;43937;41.366;2.072;2023-12-20T03:03:21;21.65;;;16.75;;
56039;SDS011;43937;41.366;2.072;2023-12-20T03:05:47;24.63;;;16.95;;
56039;SDS011;43937;41.366;2.072;2023-12-20T03:11:27;24.80;;;17.77;;
56039;SDS011;43937;41.366;2.072;2023-12-20T03:17:37;22.05;;;16.83;;
56039;SDS011;43937;41.366;2.072;2023-12-20T03:20:03;22.70;;;17.50;;
56039;SDS011;43937;41.366;2.072;2023-12-20T03:29:34;27.58;;;17.25;;
56039;SDS011;43937;41.366;2.072;2023-12-20T03:34:24;24.33;;;17.65;;
56039;SDS011;43937;41.366;2.072;2023-12-20T03:41:14;23.55;;;16.80;;
56039;SDS011;43937;41.366;2.072;2023-12-20T03:46:49;22.45;;;17.52;;
56039;SDS011;43937;41.366;2.072;2023-12-20T03:49:14;24.52;;;17.63;;
56039;SDS011;43937;41.366;2.072;2023-12-20T03:51:40;24.95;;;17.95;;
56039;SDS011;43937;41.366;2.072;2023-12-20T03:54:07;23.33;;;17.35;;
56039;SDS011;43937;41.366;2.072;2023-12-20T03:58:26;23.55;;;18.38;;
56039;SDS011;43937;41.366;2.072;2023-12-20T04:00:51;25.50;;;18.63;;
56039;SDS011;43937;41.366;2.072;2023-12-20T04:07:37;33.20;;;18.80;;
56039;SDS011;43937;41.366;2.072;2023-12-20T04:11:51;31.58;;;21.05;;
56039;SDS011;43937;41.366;2.072;2023-12-20T04:14:17;24.65;;;19.50;;
56039;SDS011;43937;41.366;2.072;2023-12-20T04:18:31;26.63;;;19.42;;
56039;SDS011;43937;41.366;2.072;2023-12-20T04:26:55;31.25;;;20.20;;
56039;SDS011;43937;41.366;2.072;2023-12-20T04:32:26;30.05;;;20.55;;
56039;SDS011;43937;41.366;2.072;2023-12-20T04:40:48;28.75;;;20.80;;
56039;SDS011;43937;41.366;2.072;2023-12-20T04:43:14;24.17;;;19.25;;
56039;SDS011;43937;41.366;2.072;2023-12-20T04:45:43;28.17;;;19.75;;
56039;SDS011;43937;41.366;2.072;2023-12-20T04:50:01;25.75;;;19.85;;
56039;SDS011;43937;41.366;2.072;2023-12-20T04:58:22;29.73;;;20.27;;
56039;SDS011;43937;41.366;2.072;2023-12-20T05:08:39;25.50;;;19.40;;
56039;SDS011;43937;41.366;2.072;2023-12-20T05:12:53;27.63;;;19.73;;
56039;SDS011;43937;41.366;2.072;2023-12-20T05:18:15;25.05;;;18.95;;
56039;SDS011;43937;41.366;2.072;2023-12-20T05:21:22;26.70;;;19.52;;
56039;SDS011;43937;41.366;2.072;2023-12-20T05:25:51;26.13;;;19.40;;
56039;SDS011;43937;41.366;2.072;2023-12-20T05:29:57;25.50;;;18.00;;
56039;SDS011;43937;41.366;2.072;2023-12-20T05:37:23;26.13;;;17.27;;
56039;SDS011;43937;41.366;2.072;2023-12-20T05:43:06;26.45;;;17.95;;
56039;SDS011;43937;41.366;2.072;2023-12-20T05:46:26;21.67;;;17.67;;
56039;SDS011;43937;41.366;2.072;2023-12-20T05:53:04;21.98;;;17.05;;
56039;SDS011;43937;41.366;2.072;2023-12-20T05:56:05;24.42;;;16.10;;
56039;SDS011;43937;41.366;2.072;2023-12-20T05:58:32;24.30;;;16.85;;
56039;SDS011;43937;41.366;2.072;2023-12-20T06:03:41;19.38;;;15.35;;
56039;SDS011;43937;41.366;2.072;2023-12-20T06:06:42;19.08;;;14.30;;
56039;SDS011;43937;41.366;2.072;2023-12-20T06:09:57;21.55;;;14.10;;
56039;SDS011;43937;41.366;2.072;2023-12-20T06:12:22;19.65;;;13.95;;
56039;SDS011;43937;41.366;2.072;2023-12-20T06:19:34;15.13;;;12.55;;
56039;SDS011;43937;41.366;2.072;2023-12-20T06:22:00;15.73;;;13.05;;
56039;SDS011;43937;41.366;2.072;2023-12-20T06:26:35;15.68;;;12.57;;
56039;SDS011;43937;41.366;2.072;2023-12-20T06:31:36;15.20;;;12.25;;
56039;SDS011;43937;41.366;2.072;2023-12-20T06:36:31;17.08;;;12.25;;
56039;SDS011;43937;41.366;2.072;2023-12-20T06:40:25;13.98;;;11.52;;
56039;SDS011;43937;41.366;2.072;2023-12-20T06:44:42;12.68;;;11.25;;
56039;SDS011;43937;41.366;2.072;2023-12-20T06:52:54;19.27;;;11.63;;
56039;SDS011;43937;41.366;2.072;2023-12-20T06:59:39;17.35;;;10.02;;
56039;SDS011;43937;41.366;2.072;2023-12-20T07:03:39;13.75;;;11.20;;
56039;SDS011;43937;41.366;2.072;2023-12-20T07:08:09;16.77;;;10.48;;
56039;SDS011;43937;41.366;2.072;2023-12-20T07:13:09;14.50;;;9.65;;
56039;SDS011;43937;41.366;2.072;2023-12-20T07:15:34;15.85;;;10.10;;
56039;SDS011;43937;41.366;2.072;2023-12-20T07:20:47;17.60;;;11.93;;
56039;SDS011;43937;41.366;2.072;2023-12-20T07:23:13;21.73;;;12.27;;
56039;SDS011;43937;41.366;2.072;2023-12-20T07:28:33;16.27;;;11.70;;
56039;SDS011;43937;41.366;2.072;2023-12-20T07:30:58;18.05;;;11.60;;
56039;SDS011;43937;41.366;2.072;2023-12-20T07:33:24;14.90;;;11.30;;
56039;SDS011;43937;41.366;2.072;2023-12-20T07:36:49;16.80;;;11.52;;
56039;SDS011;43937;41.366;2.072;2023-12-20T07:39:14;17.42;;;11.20;;
56039;SDS011;43937;41.366;2.072;2023-12-20T07:44:54;20.02;;;12.93;;
56039;SDS011;43937;41.366;2.072;2023-12-20T07:47:20;17.75;;;13.45;;
56039;SDS011;43937;41.366;2.072;2023-12-20T07:49:48;20.60;;;13.80;;
56039;SDS011;43937;41.366;2.072;2023-12-20T07:52:14;16.17;;;13.10;;
56039;SDS011;43937;41.366;2.072;2023-12-20T07:54:41;21.55;;;13.05;;
56039;SDS011;43937;41.366;2.072;2023-12-20T07:57:06;17.25;;;13.82;;
56039;SDS011;43937;41.366;2.072;2023-12-20T07:59:31;17.23;;;13.85;;
56039;SDS011;43937;41.366;2.072;2023-12-20T08:01:57;20.55;;;13.98;;
56039;SDS011;43937;41.366;2.072;2023-12-20T08:05:43;18.25;;;14.68;;
56039;SDS011;43937;41.366;2.072;2023-12-20T08:08:08;21.15;;;15.05;;
56039;SDS011;43937;41.366;2.072;2023-12-20T08:13:47;20.77;;;14.15;;
56039;SDS011;43937;41.366;2.072;2023-12-20T08:16:13;25.50;;;14.35;;
56039;SDS011;43937;41.366;2.072;2023-12-20T08:18:59;21.55;;;15.38;;
56039;SDS011;43937;41.366;2.072;2023-12-20T08:21:44;21.60;;;15.00;;
56039;SDS011;43937;41.366;2.072;2023-12-20T08:24:10;24.20;;;14.43;;
56039;SDS011;43937;41.366;2.072;2023-12-20T08:27:55;19.15;;;14.48;;
56039;SDS011;43937;41.366;2.072;2023-12-20T08:30:21;18.73;;;14.20;;
56039;SDS011;43937;41.366;2.072;2023-12-20T08:36:43;22.38;;;13.75;;
56039;SDS011;43937;41.366;2.072;2023-12-20T08:42:59;16.23;;;12.20;;
56039;SDS011;43937;41.366;2.072;2023-12-20T08:47:49;14.80;;;11.45;;
56039;SDS011;43937;41.366;2.072;2023-12-20T09:03:41;18.92;;;12.40;;
56039;SDS011;43937;41.366;2.072;2023-12-20T09:08:17;16.50;;;12.25;;
56039;SDS011;43937;41.366;2.072;2023-12-20T09:34:48;22.38;;;16.00;;
56039;SDS011;43937;41.366;2.072;2023-12-20T09:42:17;31.65;;;17.52;;
56039;SDS011;43937;41.366;2.072;2023-12-20T09:44:49;25.92;;;16.92;;
56039;SDS011;43937;41.366;2.072;2023-12-20T09:53:20;27.50;;;18.40;;
56039;SDS011;43937;41.366;2.072;2023-12-20T09:56:58;23.60;;;17.33;;
56039;SDS011;43937;41.366;2.072;2023-12-20T10:09:19;29.10;;;16.70;;
56039;SDS011;43937;41.366;2.072;2023-12-20T10:22:36;30.80;;;16.63;;
56039;SDS011;43937;41.366;2.072;2023-12-20T10:30:01;26.83;;;16.05;;
56039;SDS011;43937;41.366;2.072;2023-12-20T10:40:36;29.45;;;17.35;;
56039;SDS011;43937;41.366;2.072;2023-12-20T10:44:51;25.77;;;16.10;;
56039;SDS011;43937;41.366;2.072;2023-12-20T10:48:34;22.15;;;14.50;;
56039;SDS011;43937;41.366;2.072;2023-12-20T11:01:28;19.08;;;14.00;;
56039;SDS011;43937;41.366;2.072;2023-12-20T11:04:03;19.48;;;13.18;;
56039;SDS011;43937;41.366;2.072;2023-12-20T11:21:39;19.75;;;11.20;;
56039;SDS011;43937;41.366;2.072;2023-12-20T11:28:33;18.52;;;10.55;;
56039;SDS011;43937;41.366;2.072;2023-12-20T11:41:07;16.08;;;10.52;;
56039;SDS011;43937;41.366;2.072;2023-12-20T11:44:08;17.37;;;11.03;;
56039;SDS011;43937;41.366;2.072;2023-12-20T11:46:33;17.27;;;10.70;;
56039;SDS011;43937;41.366;2.072;2023-12-20T11:54:46;15.40;;;10.75;;
56039;SDS011;43937;41.366;2.072;2023-12-20T12:00:24;15.30;;;10.13;;
56039;SDS011;43937;41.366;2.072;2023-12-20T12:16:19;12.95;;;9.40;;
56039;SDS011;43937;41.366;2.072;2023-12-20T12:18:45;22.60;;;9.68;;
56039;SDS011;43937;41.366;2.072;2023-12-20T12:23:25;13.83;;;8.73;;
56039;SDS011;43937;41.366;2.072;2023-12-20T12:26:24;12.27;;;9.23;;
56039;SDS011;43937;41.366;2.072;2023-12-20T12:31:15;14.27;;;8.50;;
56039;SDS011;43937;41.366;2.072;2023-12-20T12:33:41;9.77;;;8.00;;
56039;SDS011;43937;41.366;2.072;2023-12-20T12:51:25;14.45;;;8.30;;
56039;SDS011;43937;41.366;2.072;2023-12-20T12:57:30;13.63;;;8.30;;
56039;SDS011;43937;41.366;2.072;2023-12-20T13:16:59;8.95;;;8.05;;
56039;SDS011;43937;41.366;2.072;2023-12-20T13:25:29;14.38;;;7.60;;
56039;SDS011;43937;41.366;2.072;2023-12-20T13:31:29;10.80;;;7.72;;
56039;SDS011;43937;41.366;2.072;2023-12-20T13:39:21;12.00;;;7.22;;
56039;SDS011;43937;41.366;2.072;2023-12-20T13:53:17;11.95;;;7.07;;
56039;SDS011;43937;41.366;2.072;2023-12-20T13:57:25;16.30;;;8.38;;
56039;SDS011;43937;41.366;2.072;2023-12-20T14:13:19;11.65;;;8.30;;
56039;SDS011;43937;41.366;2.072;2023-12-20T14:16:27;12.80;;;8.38;;
56039;SDS011;43937;41.366;2.072;2023-12-20T14:26:19;20.58;;;9.40;;
56039;SDS011;43937;41.366;2.072;2023-12-20T14:31:58;14.93;;;9.93;;
56039;SDS011;43937;41.366;2.072;2023-12-20T14:36:11;18.63;;;9.27;;
56039;SDS011;43937;41.366;2.072;2023-12-20T14:40:28;20.38;;;8.60;;
56039;SDS011;43937;41.366;2.072;2023-12-20T14:43:06;11.70;;;7.35;;
56039;SDS011;43937;41.366;2.072;2023-12-20T14:47:27;13.18;;;6.82;;
56039;SDS011;43937;41.366;2.072;2023-12-20T15:00:50;16.98;;;8.18;;
56039;SDS011;43937;41.366;2.072;2023-12-20T15:04:46;13.48;;;9.27;;
56039;SDS011;43937;41.366;2.072;2023-12-20T15:11:18;17.00;;;8.27;;
56039;SDS011;43937;41.366;2.072;2023-12-20T15:16:52;13.50;;;7.47;;
56039;SDS011;43937;41.366;2.072;2023-12-20T15:21:18;23.38;;;9.05;;
56039;SDS011;43937;41.366;2.072;2023-12-20T15:28:50;18.45;;;9.57;;
56039;SDS011;43937;41.366;2.072;2023-12-20T15:31:46;18.65;;;9.30;;
56039;SDS011;43937;41.366;2.072;2023-12-20T15:34:13;19.05;;;10.82;;
56039;SDS011;43937;41.366;2.072;2023-12-20T15:43:33;17.05;;;10.50;;
56039;SDS011;43937;41.366;2.072;2023-12-20T15:45:58;16.95;;;11.85;;
56039;SDS011;43937;41.366;2.072;2023-12-20T15:49:53;19.13;;;12.35;;
56039;SDS011;43937;41.366;2.072;2023-12-20T15:57:05;25.48;;;11.50;;
56039;SDS011;43937;41.366;2.072;2023-12-20T16:07:57;32.80;;;14.07;;
56039;SDS011;43937;41.366;2.072;2023-12-20T16:14:36;27.42;;;13.15;;
56039;SDS011;43937;41.366;2.072;2023-12-20T16:20:29;29.35;;;12.70;;
56039;SDS011;43937;41.366;2.072;2023-12-20T16:28:25;21.85;;;11.20;;
56039;SDS011;43937;41.366;2.072;2023-12-20T16:30:51;32.35;;;12.60;;
56039;SDS011;43937;41.366;2.072;2023-12-20T16:36:05;24.20;;;11.90;;
56039;SDS011;43937;41.366;2.072;2023-12-20T16:45:51;15.88;;;7.10;;
56039;SDS011;43937;41.366;2.072;2023-12-20T16:49:41;11.90;;;6.60;;
56039;SDS011;43937;41.366;2.072;2023-12-20T16:52:06;13.80;;;7.10;;
56039;SDS011;43937;41.366;2.072;2023-12-20T16:55:03;18.23;;;6.88;;
56039;SDS011;43937;41.366;2.072;2023-12-20T16:58:57;9.23;;;6.90;;
56039;SDS011;43937;41.366;2.072;2023-12-20T17:04:22;10.98;;;7.32;;
56039;SDS011;43937;41.366;2.072;2023-12-20T17:12:19;15.85;;;7.78;;
56039;SDS011;43937;41.366;2.072;2023-12-20T17:15:21;12.05;;;8.18;;
56039;SDS011;43937;41.366;2.072;2023-12-20T17:20:40;17.48;;;8.73;;
56039;SDS011;43937;41.366;2.072;2023-12-20T17:28:57;13.73;;;8.85;;
56039;SDS011;43937;41.366;2.072;2023-12-20T17:35:53;14.82;;;10.02;;
56039;SDS011;43937;41.366;2.072;2023-12-20T17:38:18;15.40;;;10.10;;
56039;SDS011;43937;41.366;2.072;2023-12-20T17:42:36;14.30;;;10.10;;
56039;SDS011;43937;41.366;2.072;2023-12-20T17:49:21;16.08;;;10.77;;
56039;SDS011;43937;41.366;2.072;2023-12-20T17:51:46;14.03;;;11.03;;
56039;SDS011;43937;41.366;2.072;2023-12-20T17:55:22;15.68;;;10.48;;
56039;SDS011;43937;41.366;2.072;2023-12-20T17:58:10;19.95;;;11.30;;
56039;SDS011;43937;41.366;2.072;2023-12-20T18:01:49;15.02;;;10.38;;
56039;SDS011;43937;41.366;2.072;2023-12-20T18:06:46;16.55;;;11.98;;
56039;SDS011;43937;41.366;2.072;2023-12-20T18:12:59;17.27;;;11.13;;
56039;SDS011;43937;41.366;2.072;2023-12-20T18:15:24;21.75;;;12.23;;
56039;SDS011;43937;41.366;2.072;2023-12-20T18:20:33;17.88;;;11.07;;
56039;SDS011;43937;41.366;2.072;2023-12-20T18:23:33;18.17;;;12.40;;
56039;SDS011;43937;41.366;2.072;2023-12-20T18:26:42;16.15;;;12.18;;
56039;SDS011;43937;41.366;2.072;2023-12-20T18:33:06;15.88;;;11.57;;
56039;SDS011;43937;41.366;2.072;2023-12-20T18:41:56;14.18;;;11.15;;
56039;SDS011;43937;41.366;2.072;2023-12-20T18:52:07;18.77;;;12.10;;
56039;SDS011;43937;41.366;2.072;2023-12-20T19:09:16;16.27;;;11.57;;
56039;SDS011;43937;41.366;2.072;2023-12-20T19:14:02;20.20;;;11.15;;
56039;SDS011;43937;41.366;2.072;2023-12-20T19:16:28;14.05;;;11.10;;
56039;SDS011;43937;41.366;2.072;2023-12-20T19:19:46;16.13;;;10.70;;
56039;SDS011;43937;41.366;2.072;2023-12-20T19:24:22;15.80;;;10.80;;
56039;SDS011;43937;41.366;2.072;2023-12-20T19:26:47;15.35;;;10.63;;
56039;SDS011;43937;41.366;2.072;2023-12-20T19:30:57;16.05;;;11.75;;
56039;SDS011;43937;41.366;2.072;2023-12-20T19:33:26;16.73;;;11.13;;
56039;SDS011;43937;41.366;2.072;2023-12-20T19:35:53;21.60;;;11.40;;
56039;SDS011;43937;41.366;2.072;2023-12-20T19:38:18;19.85;;;11.07;;
56039;SDS011;43937;41.366;2.072;2023-12-20T19:43:11;15.00;;;11.10;;
56039;SDS011;43937;41.366;2.072;2023-12-20T19:46:50;16.02;;;12.05;;
56039;SDS011;43937;41.366;2.072;2023-12-20T19:49:16;15.15;;;11.52;;
56039;SDS011;43937;41.366;2.072;2023-12-20T19:51:41;15.93;;;11.05;;
56039;SDS011;43937;41.366;2.072;2023-12-20T19:54:06;16.33;;;12.32;;
56039;SDS011;43937;41.366;2.072;2023-12-20T19:58:00;21.40;;;13.48;;
56039;SDS011;43937;41.366;2.072;2023-12-20T20:07:10;16.85;;;11.20;;
56039;SDS011;43937;41.366;2.072;2023-12-20T20:13:21;14.88;;;11.07;;
56039;SDS011;43937;41.366;2.072;2023-12-20T20:15:47;16.70;;;11.30;;
56039;SDS011;43937;41.366;2.072;2023-12-20T20:19:17;17.85;;;11.63;;
56039;SDS011;43937;41.366;2.072;2023-12-20T20:27:21;20.25;;;10.90;;
56039;SDS011;43937;41.366;2.072;2023-12-20T20:33:06;21.75;;;11.85;;
56039;SDS011;43937;41.366;2.072;2023-12-20T20:38:06;32.00;;;21.40;;
56039;SDS011;43937;41.366;2.072;2023-12-20T20:44:14;19.08;;;10.55;;
56039;SDS011;43937;41.366;2.072;2023-12-20T20:48:32;17.67;;;11.70;;
56039;SDS011;43937;41.366;2.072;2023-12-20T20:53:25;19.02;;;11.77;;
56039;SDS011;43937;41.366;2.072;2023-12-20T20:57:58;16.73;;;11.30;;
56039;SDS011;43937;41.366;2.072;2023-12-20T21:02:56;17.90;;;11.32;;
56039;SDS011;43937;41.366;2.072;2023-12-20T21:07:52;27.70;;;17.35;;
56039;SDS011;43937;41.366;2.072;2023-12-20T21:16:14;14.80;;;11.63;;
56039;SDS011;43937;41.366;2.072;2023-12-20T21:18:39;20.90;;;11.65;;
56039;SDS011;43937;41.366;2.072;2023-12-20T21:22:15;15.93;;;11.32;;
56039;SDS011;43937;41.366;2.072;2023-12-20T21:24:40;14.73;;;10.68;;
56039;SDS011;43937;41.366;2.072;2023-12-20T21:36:02;23.45;;;14.80;;
56039;SDS011;43937;41.366;2.072;2023-12-20T21:40:27;26.15;;;16.70;;
56039;SDS011;43937;41.366;2.072;2023-12-20T21:48:33;16.63;;;12.30;;
56039;SDS011;43937;41.366;2.072;2023-12-20T21:51:45;16.15;;;11.10;;
56039;SDS011;43937;41.366;2.072;2023-12-20T21:59:17;16.05;;;10.52;;
56039;SDS011;43937;41.366;2.072;2023-12-20T22:03:44;18.13;;;11.32;;
56039;SDS011;43937;41.366;2.072;2023-12-20T22:07:59;14.60;;;10.57;;
56039;SDS011;43937;41.366;2.072;2023-12-20T22:11:46;16.90;;;11.68;;
56039;SDS011;43937;41.366;2.072;2023-12-20T22:14:11;23.13;;;14.98;;
56039;SDS011;43937;41.366;2.072;2023-12-20T22:20:05;19.20;;;10.18;;
56039;SDS011;43937;41.366;2.072;2023-12-20T22:22:31;21.23;;;12.88;;
56039;SDS011;43937;41.366;2.072;2023-12-20T22:24:57;20.75;;;12.40;;
56039;SDS011;43937;41.366;2.072;2023-12-20T22:29:10;16.33;;;11.70;;
56039;SDS011;43937;41.366;2.072;2023-12-20T22:37:07;17.20;;;12.85;;
56039;SDS011;43937;41.366;2.072;2023-12-20T22:40:27;19.65;;;13.82;;
56039;SDS011;43937;41.366;2.072;2023-12-20T22:42:52;21.27;;;14.27;;
56039;SDS011;43937;41.366;2.072;2023-12-20T22:45:18;16.98;;;13.68;;
56039;SDS011;43937;41.366;2.072;2023-12-20T22:56:22;19.10;;;14.07;;
56039;SDS011;43937;41.366;2.072;2023-12-20T22:58:50;21.70;;;14.18;;
56039;SDS011;43937;41.366;2.072;2023-12-20T23:01:16;20.10;;;13.35;;
56039;SDS011;43937;41.366;2.072;2023-12-20T23:04:50;19.10;;;13.52;;
56039;SDS011;43937;41.366;2.072;2023-12-20T23:08:45;17.85;;;13.27;;
56039;SDS011;43937;41.366;2.072;2023-12-20T23:11:10;20.52;;;14.07;;
56039;SDS011;43937;41.366;2.072;2023-12-20T23:19:32;19.08;;;13.32;;
56039;SDS011;43937;41.366;2.072;2023-12-20T23:23:07;16.30;;;12.57;;
56039;SDS011;43937;41.366;2.072;2023-12-20T23:27:05;17.63;;;12.43;;
56039;SDS011;43937;41.366;2.072;2023-12-20T23:33:17;19.67;;;12.23;;
56039;SDS011;43937;41.366;2.072;2023-12-20T23:39:41;19.75;;;11.98;;
56039;SDS011;43937;41.366;2.072;2023-12-20T23:42:07;19.25;;;11.98;;
56039;SDS011;43937;41.366;2.072;2023-12-20T23:44:33;23.60;;;13.35;;
56039;SDS011;43937;41.366;2.072;2023-12-20T23:51:07;27.70;;;16.40;;
56039;SDS011;43937;41.366;2.072;2023-12-20T23:56:13;28.35;;;18.15;;
